createdAt,value
2019-06-08T00:00:07.324Z,15.70
2019-06-08T00:01:07.334Z,15.56
2019-06-08T00:02:07.330Z,15.55
2019-06-08T00:03:07.279Z,15.55
2019-06-08T00:04:07.268Z,15.52
2019-06-08T00:05:07.257Z,15.68
2019-06-08T00:06:07.247Z,15.62
2019-06-08T00:07:07.280Z,15.76
2019-06-08T00:08:07.223Z,15.70
2019-06-08T00:09:07.214Z,15.76
2019-06-08T00:10:07.202Z,15.74
2019-06-08T00:11:07.190Z,15.86
2019-06-08T00:12:07.238Z,15.77
2019-06-08T00:13:07.200Z,15.85
2019-06-08T00:14:07.159Z,15.81
2019-06-08T00:15:07.153Z,15.89
2019-06-08T00:16:07.138Z,15.77
2019-06-08T00:17:07.138Z,15.89
2019-06-08T00:18:07.117Z,15.76
2019-06-08T00:19:07.122Z,15.77
2019-06-08T00:20:07.131Z,15.66
2019-06-08T00:21:07.088Z,15.71
2019-06-08T00:22:07.085Z,15.76
2019-06-08T00:23:07.066Z,15.74
2019-06-08T00:24:07.054Z,15.66
2019-06-08T00:25:07.042Z,15.62
2019-06-08T00:26:07.062Z,15.74
2019-06-08T00:27:07.039Z,15.66
2019-06-08T00:28:07.015Z,15.67
2019-06-08T00:29:07.001Z,15.56
2019-06-08T00:30:06.991Z,15.68
2019-06-08T00:31:06.978Z,15.59
2019-06-08T00:32:07.000Z,15.60
2019-06-08T00:33:06.957Z,15.59
2019-06-08T00:34:06.950Z,15.68
2019-06-08T00:35:06.942Z,15.73
2019-06-08T00:36:06.928Z,15.76
2019-06-08T00:37:06.926Z,15.76
2019-06-08T00:38:06.937Z,15.81
2019-06-08T00:39:06.955Z,15.64
2019-06-08T00:40:06.884Z,15.62
2019-06-08T00:41:06.872Z,15.51
2019-06-08T00:42:06.906Z,15.58
2019-06-08T00:43:06.851Z,15.51
2019-06-08T00:44:06.840Z,15.60
2019-06-08T00:45:06.866Z,15.60
2019-06-08T00:46:06.820Z,15.59
2019-06-08T00:47:06.825Z,15.51
2019-06-08T00:48:06.799Z,15.48
2019-06-08T00:49:06.787Z,15.38
2019-06-08T00:50:06.800Z,15.41
2019-06-08T00:51:06.775Z,15.38
2019-06-08T00:52:06.758Z,15.52
2019-06-08T00:53:06.764Z,15.38
2019-06-08T00:54:06.744Z,15.41
2019-06-08T00:55:06.734Z,15.35
2019-06-08T00:56:06.775Z,15.40
2019-06-08T00:57:06.701Z,15.38
2019-06-08T00:58:06.707Z,15.31
2019-06-08T00:59:06.680Z,15.25
2019-06-08T01:00:10.955Z,15.13
2019-06-08T01:01:06.664Z,15.12
2019-06-08T01:02:06.684Z,15.04
2019-06-08T01:03:06.651Z,15.05
2019-06-08T01:04:06.629Z,15.00
2019-06-08T01:05:06.615Z,15.01
2019-06-08T01:06:06.604Z,15.09
2019-06-08T01:07:06.596Z,14.98
2019-06-08T01:08:06.730Z,14.98
2019-06-08T01:09:06.572Z,15.00
2019-06-08T01:10:06.563Z,15.04
2019-06-08T01:11:06.555Z,15.05
2019-06-08T01:12:06.541Z,14.97
2019-06-08T01:13:06.545Z,15.03
2019-06-08T01:14:06.547Z,14.98
2019-06-08T01:15:06.724Z,14.95
2019-06-08T01:16:06.525Z,14.87
2019-06-08T01:17:06.490Z,14.95
2019-06-08T01:18:06.494Z,14.85
2019-06-08T01:19:06.469Z,14.87
2019-06-08T01:20:06.483Z,14.93
2019-06-08T01:21:06.447Z,14.98
2019-06-08T01:22:06.438Z,14.93
2019-06-08T01:23:06.437Z,14.95
2019-06-08T01:24:06.412Z,14.95
2019-06-08T01:25:06.404Z,14.87
2019-06-08T01:26:06.418Z,14.80
2019-06-08T01:27:06.388Z,14.83
2019-06-08T01:28:06.381Z,14.90
2019-06-08T01:29:06.363Z,14.75
2019-06-08T01:30:06.351Z,14.93
2019-06-08T01:31:06.338Z,14.87
2019-06-08T01:32:06.365Z,14.93
2019-06-08T01:33:06.326Z,14.93
2019-06-08T01:34:06.306Z,15.01
2019-06-08T01:35:06.294Z,14.94
2019-06-08T01:36:06.286Z,14.95
2019-06-08T01:37:06.274Z,14.82
2019-06-08T01:38:06.317Z,14.75
2019-06-08T01:39:06.261Z,14.85
2019-06-08T01:40:06.243Z,14.82
2019-06-08T01:41:06.231Z,14.79
2019-06-08T01:42:06.218Z,14.75
2019-06-08T01:43:06.219Z,14.90
2019-06-08T01:44:06.228Z,14.90
2019-06-08T01:45:06.187Z,14.83
2019-06-08T01:46:06.176Z,14.80
2019-06-08T01:47:06.166Z,14.74
2019-06-08T01:48:19.611Z,14.72
2019-06-08T01:49:07.147Z,14.72
2019-06-08T01:50:06.183Z,14.72
2019-06-08T01:51:06.124Z,14.75
2019-06-08T01:52:06.119Z,14.69
2019-06-08T01:53:06.121Z,14.66
2019-06-08T01:54:06.090Z,14.66
2019-06-08T01:55:06.079Z,14.63
2019-06-08T01:56:06.094Z,14.63
2019-06-08T01:57:06.061Z,14.61
2019-06-08T01:58:06.072Z,14.74
2019-06-08T01:59:06.036Z,14.69
2019-06-08T02:00:29.106Z,14.64
2019-06-08T02:01:07.013Z,14.59
2019-06-08T02:02:06.046Z,14.61
2019-06-08T02:03:05.994Z,14.59
2019-06-08T02:04:05.995Z,14.60
2019-06-08T02:05:05.975Z,14.63
2019-06-08T02:06:05.967Z,14.61
2019-06-08T02:07:05.989Z,14.67
2019-06-08T02:08:05.988Z,14.63
2019-06-08T02:09:05.955Z,14.64
2019-06-08T02:10:05.917Z,14.79
2019-06-08T02:11:05.918Z,14.69
2019-06-08T02:12:05.907Z,14.78
2019-06-08T02:13:08.574Z,14.67
2019-06-08T02:14:05.913Z,14.67
2019-06-08T02:15:05.894Z,14.78
2019-06-08T02:16:05.852Z,14.69
2019-06-08T02:17:05.915Z,14.66
2019-06-08T02:18:05.835Z,14.69
2019-06-08T02:19:05.830Z,14.63
2019-06-08T02:20:05.812Z,14.63
2019-06-08T02:21:05.853Z,14.61
2019-06-08T02:22:05.785Z,14.63
2019-06-08T02:23:05.779Z,14.57
2019-06-08T02:24:05.779Z,14.61
2019-06-08T02:25:05.754Z,14.66
2019-06-08T02:26:05.745Z,14.63
2019-06-08T02:27:05.770Z,14.59
2019-06-08T02:28:05.732Z,14.63
2019-06-08T02:29:05.731Z,14.60
2019-06-08T02:30:05.700Z,14.57
2019-06-08T02:31:05.699Z,14.48
2019-06-08T02:32:05.732Z,14.49
2019-06-08T02:33:05.717Z,14.46
2019-06-08T02:34:05.672Z,14.48
2019-06-08T02:35:05.647Z,14.45
2019-06-08T02:36:05.638Z,14.49
2019-06-08T02:37:05.625Z,14.52
2019-06-08T02:38:05.622Z,14.48
2019-06-08T02:39:05.635Z,14.63
2019-06-08T02:40:05.594Z,14.57
2019-06-08T02:41:05.584Z,14.46
2019-06-08T02:42:05.571Z,14.49
2019-06-08T02:43:05.559Z,14.56
2019-06-08T02:44:05.568Z,14.61
2019-06-08T02:45:05.580Z,14.67
2019-06-08T02:46:05.530Z,14.67
2019-06-08T02:47:05.518Z,14.57
2019-06-08T02:48:05.504Z,14.52
2019-06-08T02:49:05.524Z,14.52
2019-06-08T02:50:05.499Z,14.46
2019-06-08T02:51:05.505Z,14.45
2019-06-08T02:52:05.462Z,14.41
2019-06-08T02:53:05.449Z,14.48
2019-06-08T02:54:05.441Z,14.39
2019-06-08T02:55:05.441Z,14.39
2019-06-08T02:56:05.431Z,14.34
2019-06-08T02:57:05.479Z,14.36
2019-06-08T02:58:05.395Z,14.39
2019-06-08T02:59:05.386Z,14.31
2019-06-08T03:00:05.390Z,14.38
2019-06-08T03:01:05.373Z,14.27
2019-06-08T03:02:05.351Z,14.21
2019-06-08T03:03:05.378Z,14.36
2019-06-08T03:04:05.340Z,14.34
2019-06-08T03:05:05.340Z,14.39
2019-06-08T03:06:05.312Z,14.29
2019-06-08T03:07:05.301Z,14.30
2019-06-08T03:08:05.288Z,14.34
2019-06-08T03:09:05.308Z,14.39
2019-06-08T03:10:05.281Z,14.23
2019-06-08T03:11:05.254Z,14.26
2019-06-08T03:12:05.242Z,14.20
2019-06-08T03:13:05.235Z,14.27
2019-06-08T03:14:05.221Z,14.35
2019-06-08T03:15:05.249Z,14.24
2019-06-08T03:16:05.199Z,14.24
2019-06-08T03:17:05.192Z,14.26
2019-06-08T03:18:05.181Z,14.30
2019-06-08T03:19:21.165Z,14.26
2019-06-08T03:20:06.171Z,14.29
2019-06-08T03:21:05.186Z,14.26
2019-06-08T03:22:05.142Z,14.29
2019-06-08T03:23:05.128Z,14.19
2019-06-08T03:24:05.109Z,14.21
2019-06-08T03:25:05.114Z,14.08
2019-06-08T03:26:05.094Z,14.17
2019-06-08T03:27:05.106Z,14.13
2019-06-08T03:28:05.070Z,14.04
2019-06-08T03:29:05.056Z,14.06
2019-06-08T03:30:16.507Z,14.11
2019-06-08T03:31:06.038Z,14.16
2019-06-08T03:32:05.024Z,14.02
2019-06-08T03:33:05.053Z,14.02
2019-06-08T03:34:05.003Z,14.09
2019-06-08T03:35:05.012Z,14.04
2019-06-08T03:36:04.984Z,13.98
2019-06-08T03:37:04.969Z,13.96
2019-06-08T03:38:04.957Z,13.87
2019-06-08T03:39:04.992Z,13.98
2019-06-08T03:40:04.948Z,14.13
2019-06-08T03:41:04.925Z,14.09
2019-06-08T03:42:04.913Z,14.17
2019-06-08T03:43:04.911Z,14.02
2019-06-08T03:44:04.889Z,14.04
2019-06-08T03:45:04.934Z,13.98
2019-06-08T03:46:04.867Z,14.08
2019-06-08T03:47:04.856Z,14.08
2019-06-08T03:48:04.846Z,14.09
2019-06-08T03:49:04.836Z,14.05
2019-06-08T03:50:04.823Z,14.06
2019-06-08T03:51:04.865Z,14.02
2019-06-08T03:52:04.801Z,14.09
2019-06-08T03:53:04.791Z,14.02
2019-06-08T03:54:04.780Z,14.04
2019-06-08T03:55:04.769Z,14.23
2019-06-08T03:56:04.767Z,14.16
2019-06-08T03:57:04.798Z,14.13
2019-06-08T03:58:04.734Z,14.23
2019-06-08T03:59:04.729Z,14.19
2019-06-08T04:00:12.882Z,14.08
2019-06-08T04:01:05.711Z,14.06
2019-06-08T04:02:04.690Z,14.17
2019-06-08T04:03:04.711Z,14.23
2019-06-08T04:04:04.671Z,14.19
2019-06-08T04:05:04.661Z,14.17
2019-06-08T04:06:04.714Z,14.17
2019-06-08T04:07:04.636Z,14.21
2019-06-08T04:08:04.624Z,14.13
2019-06-08T04:09:04.645Z,14.04
2019-06-08T04:10:04.603Z,13.98
2019-06-08T04:11:04.590Z,14.05
2019-06-08T04:12:04.596Z,14.11
2019-06-08T04:13:04.569Z,14.08
2019-06-08T04:14:04.558Z,14.09
2019-06-08T04:15:04.579Z,13.99
2019-06-08T04:16:04.545Z,14.12
2019-06-08T04:17:04.529Z,13.98
2019-06-08T04:18:04.519Z,14.01
2019-06-08T04:19:04.501Z,14.05
2019-06-08T04:20:11.093Z,14.04
2019-06-08T04:21:05.550Z,14.09
2019-06-08T04:22:04.470Z,14.08
2019-06-08T04:23:04.462Z,13.91
2019-06-08T04:24:04.448Z,13.96
2019-06-08T04:25:04.436Z,13.99
2019-06-08T04:26:04.437Z,13.98
2019-06-08T04:27:04.478Z,13.90
2019-06-08T04:28:04.406Z,13.90
2019-06-08T04:29:04.390Z,13.84
2019-06-08T04:30:04.382Z,13.86
2019-06-08T04:31:04.409Z,13.81
2019-06-08T04:32:04.361Z,13.76
2019-06-08T04:33:04.387Z,13.84
2019-06-08T04:34:04.350Z,13.84
2019-06-08T04:35:04.324Z,13.76
2019-06-08T04:36:04.340Z,13.79
2019-06-08T04:37:04.319Z,13.79
2019-06-08T04:38:04.295Z,13.80
2019-06-08T04:39:04.311Z,13.72
2019-06-08T04:40:04.274Z,13.76
2019-06-08T04:41:04.272Z,13.84
2019-06-08T04:42:04.247Z,13.83
2019-06-08T04:43:04.242Z,13.86
2019-06-08T04:44:04.227Z,13.90
2019-06-08T04:45:04.234Z,13.94
2019-06-08T04:46:04.218Z,13.79
2019-06-08T04:47:04.195Z,13.76
2019-06-08T04:48:04.182Z,13.87
2019-06-08T04:49:04.189Z,13.87
2019-06-08T04:50:20.917Z,13.90
2019-06-08T04:51:05.193Z,13.93
2019-06-08T04:52:04.137Z,14.11
2019-06-08T04:53:04.126Z,14.11
2019-06-08T04:54:04.113Z,14.08
2019-06-08T04:55:04.105Z,14.21
2019-06-08T04:56:04.104Z,14.26
2019-06-08T04:57:04.097Z,14.46
2019-06-08T04:58:04.115Z,14.86
2019-06-08T04:59:04.060Z,15.00
2019-06-08T05:00:11.724Z,15.12
2019-06-08T05:01:05.055Z,15.28
2019-06-08T05:02:04.025Z,15.27
2019-06-08T05:03:04.015Z,15.35
2019-06-08T05:04:04.031Z,15.48
2019-06-08T05:05:03.994Z,15.48
2019-06-08T05:06:03.993Z,15.40
2019-06-08T05:07:03.970Z,15.44
2019-06-08T05:08:03.989Z,15.51
2019-06-08T05:09:03.960Z,15.60
2019-06-08T05:10:03.972Z,15.76
2019-06-08T05:11:03.947Z,15.85
2019-06-08T05:12:03.922Z,15.98
2019-06-08T05:13:03.907Z,16.01
2019-06-08T05:14:03.898Z,16.07
2019-06-08T05:15:03.888Z,16.11
2019-06-08T05:16:03.926Z,16.10
2019-06-08T05:17:03.869Z,16.06
2019-06-08T05:18:03.856Z,15.96
2019-06-08T05:19:03.846Z,15.78
2019-06-08T05:20:03.866Z,15.95
2019-06-08T05:21:03.844Z,15.91
2019-06-08T05:22:03.851Z,15.88
2019-06-08T05:23:03.801Z,15.64
2019-06-08T05:24:03.789Z,15.58
2019-06-08T05:25:03.793Z,15.49
2019-06-08T05:26:03.782Z,15.67
2019-06-08T05:27:03.770Z,15.78
2019-06-08T05:28:03.789Z,15.78
2019-06-08T05:29:03.736Z,15.55
2019-06-08T05:30:08.345Z,15.38
2019-06-08T05:31:04.712Z,15.43
2019-06-08T05:32:03.714Z,15.49
2019-06-08T05:33:03.693Z,15.53
2019-06-08T05:34:03.706Z,15.66
2019-06-08T05:35:03.670Z,15.71
2019-06-08T05:36:03.657Z,15.89
2019-06-08T05:37:03.663Z,15.89
2019-06-08T05:38:03.635Z,16.06
2019-06-08T05:39:03.628Z,16.10
2019-06-08T05:40:03.632Z,16.37
2019-06-08T05:41:03.602Z,16.51
2019-06-08T05:42:03.600Z,16.77
2019-06-08T05:43:03.583Z,16.95
2019-06-08T05:44:03.568Z,17.00
2019-06-08T05:45:03.557Z,17.12
2019-06-08T05:46:03.562Z,17.14
2019-06-08T05:47:03.548Z,17.12
2019-06-08T05:48:03.528Z,17.32
2019-06-08T05:49:03.512Z,17.53
2019-06-08T05:50:03.505Z,17.79
2019-06-08T05:51:04.388Z,17.91
2019-06-08T05:52:03.530Z,18.05
2019-06-08T05:53:03.471Z,17.83
2019-06-08T05:54:03.464Z,18.04
2019-06-08T05:55:03.447Z,18.05
2019-06-08T05:56:03.435Z,18.05
2019-06-08T05:57:03.447Z,18.29
2019-06-08T05:58:03.433Z,18.28
2019-06-08T05:59:03.415Z,17.87
2019-06-08T06:00:08.805Z,17.83
2019-06-08T06:01:04.404Z,17.79
2019-06-08T06:02:03.420Z,17.98
2019-06-08T06:03:03.384Z,18.20
2019-06-08T06:04:03.366Z,17.86
2019-06-08T06:05:03.352Z,17.54
2019-06-08T06:06:03.385Z,17.27
2019-06-08T06:07:03.343Z,17.24
2019-06-08T06:08:04.609Z,17.38
2019-06-08T06:09:04.298Z,17.51
2019-06-08T06:10:03.304Z,17.87
2019-06-08T06:11:03.271Z,18.02
2019-06-08T06:12:03.297Z,18.21
2019-06-08T06:13:03.271Z,18.29
2019-06-08T06:14:03.238Z,18.10
2019-06-08T06:15:03.255Z,18.11
2019-06-08T06:16:03.239Z,18.25
2019-06-08T06:17:03.226Z,18.11
2019-06-08T06:18:03.251Z,18.38
2019-06-08T06:19:03.208Z,18.13
2019-06-08T06:20:03.188Z,17.87
2019-06-08T06:21:10.939Z,17.91
2019-06-08T06:22:04.163Z,18.05
2019-06-08T06:23:03.337Z,17.76
2019-06-08T06:24:03.138Z,17.76
2019-06-08T06:25:03.144Z,17.76
2019-06-08T06:26:03.142Z,17.81
2019-06-08T06:27:03.099Z,17.86
2019-06-08T06:28:06.266Z,18.02
2019-06-08T06:29:03.133Z,18.41
2019-06-08T06:30:03.218Z,18.47
2019-06-08T06:31:03.073Z,18.39
2019-06-08T06:32:03.131Z,18.53
2019-06-08T06:33:03.094Z,18.76
2019-06-08T06:34:03.026Z,18.78
2019-06-08T06:35:03.034Z,18.96
2019-06-08T06:36:03.031Z,18.65
2019-06-08T06:37:03.022Z,18.91
2019-06-08T06:38:03.035Z,18.90
2019-06-08T06:39:03.017Z,19.17
2019-06-08T06:40:02.955Z,19.53
2019-06-08T06:41:02.944Z,19.78
2019-06-08T06:42:02.949Z,19.78
2019-06-08T06:43:02.986Z,19.50
2019-06-08T06:44:02.926Z,19.76
2019-06-08T06:45:02.913Z,20.00
2019-06-08T06:46:02.903Z,19.85
2019-06-08T06:47:02.896Z,20.12
2019-06-08T06:48:02.913Z,20.37
2019-06-08T06:49:02.856Z,20.60
2019-06-08T06:50:02.861Z,20.50
2019-06-08T06:51:02.865Z,19.89
2019-06-08T06:52:02.886Z,20.19
2019-06-08T06:53:02.877Z,19.98
2019-06-08T06:54:02.911Z,19.90
2019-06-08T06:55:02.831Z,19.95
2019-06-08T06:56:02.793Z,20.01
2019-06-08T06:57:02.783Z,19.86
2019-06-08T06:58:02.877Z,19.82
2019-06-08T06:59:02.761Z,19.75
2019-06-08T07:00:02.753Z,19.86
2019-06-08T07:01:02.744Z,19.78
2019-06-08T07:02:02.747Z,19.72
2019-06-08T07:03:02.715Z,19.75
2019-06-08T07:04:02.702Z,20.17
2019-06-08T07:05:02.902Z,20.50
2019-06-08T07:06:02.694Z,20.50
2019-06-08T07:07:02.686Z,20.30
2019-06-08T07:08:02.667Z,20.35
2019-06-08T07:09:02.650Z,20.13
2019-06-08T07:10:02.657Z,19.94
2019-06-08T07:11:02.647Z,20.15
2019-06-08T07:12:02.650Z,20.31
2019-06-08T07:13:02.657Z,20.44
2019-06-08T07:14:02.590Z,20.53
2019-06-08T07:15:02.585Z,20.37
2019-06-08T07:16:17.239Z,19.95
2019-06-08T07:17:03.564Z,20.02
2019-06-08T07:18:02.551Z,20.23
2019-06-08T07:19:02.567Z,20.61
2019-06-08T07:20:02.535Z,20.53
2019-06-08T07:21:02.545Z,20.60
2019-06-08T07:22:02.602Z,20.13
2019-06-08T07:23:02.523Z,20.12
2019-06-08T07:24:02.488Z,20.15
2019-06-08T07:25:02.480Z,20.54
2019-06-08T07:26:02.520Z,20.53
2019-06-08T07:27:02.466Z,20.58
2019-06-08T07:28:02.445Z,20.61
2019-06-08T07:29:02.446Z,20.75
2019-06-08T07:30:02.598Z,20.91
2019-06-08T07:31:02.395Z,20.91
2019-06-08T07:32:02.396Z,21.15
2019-06-08T07:33:02.378Z,21.58
2019-06-08T07:34:02.453Z,21.73
2019-06-08T07:35:02.430Z,21.63
2019-06-08T07:36:02.367Z,21.63
2019-06-08T07:37:02.346Z,21.55
2019-06-08T07:38:02.378Z,21.58
2019-06-08T07:39:02.336Z,21.79
2019-06-08T07:40:02.333Z,22.23
2019-06-08T07:41:02.317Z,22.64
2019-06-08T07:42:02.275Z,22.72
2019-06-08T07:43:02.278Z,22.57
2019-06-08T07:44:02.287Z,22.60
2019-06-08T07:45:02.254Z,21.77
2019-06-08T07:46:02.287Z,21.13
2019-06-08T07:47:02.237Z,20.93
2019-06-08T07:48:02.213Z,20.98
2019-06-08T07:49:02.224Z,20.90
2019-06-08T07:50:04.614Z,21.08
2019-06-08T07:51:02.179Z,21.21
2019-06-08T07:52:09.800Z,21.00
2019-06-08T07:53:03.190Z,21.19
2019-06-08T07:54:02.549Z,21.19
2019-06-08T07:55:02.142Z,21.21
2019-06-08T07:56:02.200Z,20.87
2019-06-08T07:57:02.130Z,20.68
2019-06-08T07:58:02.106Z,20.61
2019-06-08T07:59:02.114Z,20.38
2019-06-08T08:00:08.798Z,20.73
2019-06-08T08:01:07.917Z,21.06
2019-06-08T08:02:03.065Z,20.98
2019-06-08T08:03:02.068Z,21.18
2019-06-08T08:04:02.065Z,21.49
2019-06-08T08:05:02.092Z,21.48
2019-06-08T08:06:02.027Z,21.16
2019-06-08T08:07:02.008Z,21.26
2019-06-08T08:08:02.034Z,21.31
2019-06-08T08:09:02.083Z,21.28
2019-06-08T08:10:02.096Z,21.38
2019-06-08T08:11:01.958Z,21.75
2019-06-08T08:12:01.952Z,21.83
2019-06-08T08:13:01.987Z,21.61
2019-06-08T08:14:01.956Z,21.24
2019-06-08T08:15:01.944Z,21.45
2019-06-08T08:16:01.940Z,21.98
2019-06-08T08:17:01.906Z,22.39
2019-06-08T08:18:01.887Z,22.49
2019-06-08T08:19:01.895Z,22.49
2019-06-08T08:20:01.915Z,22.70
2019-06-08T08:21:09.238Z,22.41
2019-06-08T08:22:18.559Z,22.26
2019-06-08T08:23:05.946Z,21.85
2019-06-08T08:24:02.835Z,21.79
2019-06-08T08:25:04.728Z,22.02
2019-06-08T08:26:02.027Z,22.21
2019-06-08T08:27:03.693Z,22.11
2019-06-08T08:28:01.824Z,21.90
2019-06-08T08:29:03.240Z,21.81
2019-06-08T08:30:02.283Z,21.85
2019-06-08T08:31:01.997Z,21.81
2019-06-08T08:32:02.110Z,21.79
2019-06-08T08:33:03.266Z,21.34
2019-06-08T08:34:05.602Z,21.16
2019-06-08T08:35:02.983Z,21.08
2019-06-08T08:36:02.049Z,21.19
2019-06-08T08:37:05.514Z,20.93
2019-06-08T08:38:04.550Z,20.94
2019-06-08T08:39:02.563Z,21.06
2019-06-08T08:40:01.709Z,21.40
2019-06-08T08:41:07.200Z,21.98
2019-06-08T08:42:05.001Z,22.23
2019-06-08T08:43:01.761Z,22.21
2019-06-08T08:44:04.285Z,21.91
2019-06-08T08:45:05.083Z,21.81
2019-06-08T08:46:02.017Z,21.90
2019-06-08T08:47:02.870Z,21.85
2019-06-08T08:48:21.063Z,22.24
2019-06-08T08:49:09.377Z,22.23
2019-06-08T08:50:02.552Z,22.04
2019-06-08T08:51:03.671Z,22.04
2019-06-08T08:52:01.876Z,22.11
2019-06-08T08:53:02.457Z,22.36
2019-06-08T08:54:04.891Z,22.74
2019-06-08T08:55:02.207Z,22.66
2019-06-08T08:56:02.479Z,22.94
2019-06-08T08:57:04.757Z,23.12
2019-06-08T08:58:02.185Z,22.46
2019-06-08T08:59:02.756Z,22.41
2019-06-08T09:00:04.782Z,22.61
2019-06-08T09:01:03.642Z,22.91
2019-06-08T09:02:02.914Z,23.37
2019-06-08T09:04:04.956Z,23.77
2019-06-08T09:05:03.339Z,23.89
2019-06-08T09:06:03.677Z,23.53
2019-06-08T09:07:05.519Z,22.96
2019-06-08T09:08:03.739Z,22.89
2019-06-08T09:09:02.452Z,22.67
2019-06-08T09:10:03.527Z,22.33
2019-06-08T09:11:03.590Z,22.79
2019-06-08T09:12:04.283Z,23.22
2019-06-08T09:13:04.436Z,23.47
2019-06-08T09:14:05.175Z,23.82
2019-06-08T09:15:03.896Z,23.50
2019-06-08T09:16:03.883Z,23.57
2019-06-08T09:17:02.192Z,23.97
2019-06-08T09:18:03.710Z,24.30
2019-06-08T09:19:04.256Z,24.26
2019-06-08T09:20:03.685Z,24.34
2019-06-08T09:21:02.859Z,24.14
2019-06-08T09:22:03.597Z,23.94
2019-06-08T09:23:11.625Z,23.81
2019-06-08T09:24:03.970Z,23.63
2019-06-08T09:25:04.247Z,23.34
2019-06-08T09:26:07.662Z,23.78
2019-06-08T09:27:04.006Z,24.30
2019-06-08T09:28:03.343Z,24.48
2019-06-08T09:29:04.308Z,24.92
2019-06-08T09:30:04.404Z,24.92
2019-06-08T09:31:02.787Z,24.80
2019-06-08T09:32:03.113Z,24.55
2019-06-08T09:33:02.922Z,24.60
2019-06-08T09:34:10.548Z,24.67
2019-06-08T09:35:04.599Z,24.93
2019-06-08T09:36:03.001Z,24.83
2019-06-08T09:37:02.835Z,25.01
2019-06-08T09:38:03.741Z,24.82
2019-06-08T09:39:03.107Z,24.51
2019-06-08T09:40:02.607Z,23.92
2019-06-08T09:41:03.502Z,23.82
2019-06-08T09:42:03.105Z,23.81
2019-06-08T09:43:07.388Z,23.60
2019-06-08T09:44:04.449Z,23.74
2019-06-08T09:45:04.272Z,24.08
2019-06-08T09:46:03.001Z,24.44
2019-06-08T09:47:08.705Z,24.30
2019-06-08T09:48:04.353Z,23.82
2019-06-08T09:49:07.693Z,23.69
2019-06-08T09:50:04.480Z,23.97
2019-06-08T09:51:04.119Z,24.30
2019-06-08T09:52:02.877Z,24.05
2019-06-08T09:53:18.311Z,24.56
2019-06-08T09:54:04.748Z,24.30
2019-06-08T09:55:03.720Z,24.36
2019-06-08T09:56:05.320Z,24.56
2019-06-08T09:57:03.873Z,24.44
2019-06-08T09:58:05.092Z,24.77
2019-06-08T09:59:04.705Z,25.11
2019-06-08T10:00:08.353Z,25.60
2019-06-08T10:01:03.799Z,25.66
2019-06-08T10:02:07.429Z,25.22
2019-06-08T10:03:04.269Z,24.80
2019-06-08T10:04:02.441Z,24.37
2019-06-08T10:05:03.661Z,24.02
2019-06-08T10:06:05.674Z,23.94
2019-06-08T10:07:02.667Z,23.57
2019-06-08T10:08:02.369Z,23.03
2019-06-08T10:09:00.854Z,22.88
2019-06-08T10:10:02.717Z,23.18
2019-06-08T10:11:04.071Z,23.59
2019-06-08T10:12:03.408Z,24.15
2019-06-08T10:13:03.527Z,23.87
2019-06-08T10:14:04.736Z,23.82
2019-06-08T10:15:00.867Z,23.78
2019-06-08T10:16:03.710Z,23.97
2019-06-08T10:17:03.588Z,23.89
2019-06-08T10:18:00.990Z,24.09
2019-06-08T10:19:03.911Z,23.96
2019-06-08T10:20:03.373Z,24.34
2019-06-08T10:21:02.830Z,24.64
2019-06-08T10:22:00.864Z,24.75
2019-06-08T10:23:03.294Z,24.46
2019-06-08T10:24:02.707Z,24.51
2019-06-08T10:25:03.982Z,24.19
2019-06-08T10:26:03.450Z,24.15
2019-06-08T10:27:01.382Z,24.51
2019-06-08T10:28:07.879Z,24.60
2019-06-08T10:29:04.101Z,24.66
2019-06-08T10:30:03.144Z,24.45
2019-06-08T10:31:03.013Z,24.16
2019-06-08T10:32:01.550Z,23.92
2019-06-08T10:33:02.145Z,24.19
2019-06-08T10:34:03.365Z,24.08
2019-06-08T10:35:03.647Z,23.87
2019-06-08T10:36:02.304Z,23.81
2019-06-08T10:37:04.966Z,23.87
2019-06-08T10:38:05.068Z,23.99
2019-06-08T10:39:04.740Z,24.14
2019-06-08T10:40:03.723Z,24.16
2019-06-08T10:41:06.927Z,24.23
2019-06-08T10:42:03.573Z,24.34
2019-06-08T10:43:01.472Z,24.70
2019-06-08T10:44:01.320Z,24.89
2019-06-08T10:45:07.613Z,25.14
2019-06-08T10:46:08.577Z,25.07
2019-06-08T10:47:03.002Z,24.66
2019-06-08T10:48:01.525Z,24.42
2019-06-08T10:49:01.803Z,24.49
2019-06-08T10:50:06.385Z,24.84
2019-06-08T10:51:03.774Z,25.07
2019-06-08T10:52:03.011Z,25.54
2019-06-08T10:53:02.830Z,25.81
2019-06-08T10:54:00.251Z,26.06
2019-06-08T10:55:03.208Z,26.44
2019-06-08T10:56:01.733Z,26.53
2019-06-08T10:57:02.571Z,26.42
2019-06-08T10:58:02.392Z,26.03
2019-06-08T10:59:02.329Z,25.59
2019-06-08T11:00:02.963Z,24.94
2019-06-08T11:01:04.193Z,24.64
2019-06-08T11:02:02.655Z,24.70
2019-06-08T11:03:03.297Z,24.83
2019-06-08T11:04:01.630Z,24.83
2019-06-08T11:05:04.722Z,24.45
2019-06-08T11:06:02.930Z,24.44
2019-06-08T11:07:05.605Z,24.79
2019-06-08T11:08:02.535Z,25.27
2019-06-08T11:09:03.714Z,25.69
2019-06-08T11:10:02.111Z,25.66
2019-06-08T11:11:01.530Z,25.26
2019-06-08T11:12:01.534Z,25.22
2019-06-08T11:13:05.153Z,25.04
2019-06-08T11:14:03.520Z,25.14
2019-06-08T11:15:02.801Z,25.56
2019-06-08T11:16:01.003Z,25.91
2019-06-08T11:17:00.633Z,26.20
2019-06-08T11:18:02.294Z,26.17
2019-06-08T11:19:01.029Z,26.06
2019-06-08T11:20:02.254Z,25.93
2019-06-08T11:21:01.936Z,26.41
2019-06-08T11:22:02.673Z,26.21
2019-06-08T11:23:01.791Z,26.03
2019-06-08T11:24:07.519Z,25.64
2019-06-08T11:25:02.497Z,25.39
2019-06-08T11:26:04.603Z,25.31
2019-06-08T11:27:01.283Z,25.05
2019-06-08T11:28:01.723Z,25.27
2019-06-08T11:29:01.573Z,25.38
2019-06-08T11:29:59.882Z,25.39
2019-06-08T11:30:59.872Z,25.54
2019-06-08T11:32:00.092Z,25.76
2019-06-08T11:32:59.986Z,26.16
2019-06-08T11:34:00.301Z,26.16
2019-06-08T11:34:59.947Z,26.04
2019-06-08T11:36:02.922Z,25.98
2019-06-08T11:37:01.927Z,25.79
2019-06-08T11:38:00.223Z,25.81
2019-06-08T11:39:00.477Z,25.94
2019-06-08T11:39:59.887Z,25.61
2019-06-08T11:41:00.940Z,25.67
2019-06-08T11:42:00.283Z,25.83
2019-06-08T11:43:00.484Z,26.01
2019-06-08T11:44:01.348Z,26.21
2019-06-08T11:45:00.266Z,26.49
2019-06-08T11:46:00.537Z,26.27
2019-06-08T11:47:00.417Z,25.64
2019-06-08T11:48:00.506Z,25.39
2019-06-08T11:49:01.163Z,25.57
2019-06-08T11:50:00.540Z,25.49
2019-06-08T11:51:00.580Z,25.56
2019-06-08T11:52:00.476Z,25.45
2019-06-08T11:53:00.629Z,25.31
2019-06-08T11:54:00.902Z,25.38
2019-06-08T11:55:00.667Z,25.81
2019-06-08T11:56:01.194Z,26.04
2019-06-08T11:57:00.764Z,26.11
2019-06-08T11:58:00.846Z,26.13
2019-06-08T11:58:59.604Z,26.20
2019-06-08T11:59:59.601Z,26.01
2019-06-08T12:01:02.894Z,26.34
2019-06-08T12:01:59.584Z,26.65
2019-06-08T12:02:59.563Z,26.56
2019-06-08T12:03:59.556Z,26.13
2019-06-08T12:04:59.548Z,25.97
2019-06-08T12:05:59.539Z,25.83
2019-06-08T12:06:59.535Z,25.66
2019-06-08T12:07:59.514Z,25.59
2019-06-08T12:09:00.308Z,25.36
2019-06-08T12:09:59.498Z,25.66
2019-06-08T12:11:02.037Z,25.94
2019-06-08T12:11:59.490Z,25.93
2019-06-08T12:12:59.469Z,25.85
2019-06-08T12:13:59.461Z,25.74
2019-06-08T12:14:59.450Z,25.93
2019-06-08T12:15:59.441Z,25.86
2019-06-08T12:17:01.365Z,25.61
2019-06-08T12:17:59.435Z,25.66
2019-06-08T12:18:59.410Z,25.49
2019-06-08T12:19:59.398Z,25.71
2019-06-08T12:21:01.476Z,25.82
2019-06-08T12:21:59.421Z,26.01
2019-06-08T12:22:59.372Z,26.11
2019-06-08T12:23:59.361Z,26.21
2019-06-08T12:24:59.381Z,26.39
2019-06-08T12:25:59.353Z,26.46
2019-06-08T12:27:09.473Z,26.72
2019-06-08T12:28:00.332Z,26.98
2019-06-08T12:29:01.383Z,26.46
2019-06-08T12:29:59.303Z,26.41
2019-06-08T12:31:01.085Z,26.50
2019-06-08T12:32:00.490Z,26.53
2019-06-08T12:32:59.286Z,26.54
2019-06-08T12:33:59.263Z,26.65
2019-06-08T12:35:00.180Z,26.36
2019-06-08T12:35:59.252Z,26.44
2019-06-08T12:36:59.238Z,26.24
2019-06-08T12:37:59.238Z,26.42
2019-06-08T12:38:59.235Z,26.65
2019-06-08T12:40:01.354Z,26.57
2019-06-08T12:40:59.196Z,26.79
2019-06-08T12:41:59.188Z,26.94
2019-06-08T12:42:59.692Z,27.03
2019-06-08T12:43:59.172Z,26.96
2019-06-08T12:44:59.161Z,27.23
2019-06-08T12:45:59.148Z,27.62
2019-06-08T12:46:59.138Z,27.81
2019-06-08T12:47:59.141Z,27.86
2019-06-08T12:48:59.122Z,28.09
2019-06-08T12:49:59.114Z,27.86
2019-06-08T12:50:59.098Z,27.98
2019-06-08T12:51:59.111Z,28.28
2019-06-08T12:52:59.096Z,28.52